createdAt,value
2023-04-03T00:01:41.901Z,6.25
2023-04-03T00:04:11.876Z,5.43
2023-04-03T00:06:46.819Z,10.02
2023-04-03T00:09:14.878Z,5.90
2023-04-03T00:11:44.045Z,6.55
2023-04-03T00:14:10.708Z,5.65
2023-04-03T00:16:37.477Z,6.28
2023-04-03T00:19:06.723Z,6.95
2023-04-03T00:21:33.546Z,5.10
2023-04-03T00:24:00.334Z,7.50
2023-04-03T00:26:29.466Z,4.85
2023-04-03T00:28:58.097Z,5.35
2023-04-03T00:31:24.952Z,5.63
2023-04-03T00:33:52.171Z,5.88
2023-04-03T00:36:21.535Z,5.20
2023-04-03T00:38:48.353Z,7.88
2023-04-03T00:41:15.337Z,7.43
2023-04-03T00:43:45.903Z,5.15
2023-04-03T00:46:12.618Z,9.63
2023-04-03T00:48:46.625Z,4.90
2023-04-03T00:51:27.067Z,6.00
2023-04-03T00:54:01.974Z,6.68
2023-04-03T00:56:32.334Z,8.00
2023-04-03T00:59:27.492Z,6.57
2023-04-03T01:01:58.626Z,10.10
2023-04-03T01:04:44.448Z,6.50
2023-04-03T01:07:23.306Z,6.00
2023-04-03T01:09:58.708Z,8.40
2023-04-03T01:12:33.001Z,8.48
2023-04-03T01:15:12.821Z,5.90
2023-04-03T01:17:51.979Z,5.32
2023-04-03T01:21:12.015Z,5.00
2023-04-03T01:24:01.162Z,5.97
2023-04-03T01:26:32.058Z,7.20
2023-04-03T01:29:01.405Z,6.15
2023-04-03T01:31:54.203Z,7.70
2023-04-03T01:34:22.047Z,9.35
2023-04-03T01:36:48.760Z,9.52
2023-04-03T01:39:16.069Z,5.38
2023-04-03T01:41:43.071Z,8.43
2023-04-03T01:44:15.940Z,6.50
2023-04-03T01:46:45.747Z,6.15
2023-04-03T01:49:12.498Z,5.75
2023-04-03T01:51:47.539Z,7.97
2023-04-03T01:54:14.226Z,6.05
2023-04-03T01:56:44.287Z,7.80
2023-04-03T01:59:14.169Z,5.45
2023-04-03T02:01:46.148Z,6.22
2023-04-03T02:04:16.521Z,5.03
2023-04-03T02:06:46.468Z,6.35
2023-04-03T02:09:19.069Z,5.35
2023-04-03T02:11:45.750Z,6.00
2023-04-03T02:14:12.486Z,10.38
2023-04-03T02:16:42.076Z,6.80
2023-04-03T02:19:13.793Z,6.10
2023-04-03T02:21:43.623Z,5.90
2023-04-03T02:24:16.371Z,10.50
2023-04-03T02:26:48.856Z,6.78
2023-04-03T02:29:27.187Z,7.18
2023-04-03T02:31:53.884Z,7.00
2023-04-03T02:34:20.786Z,6.47
2023-04-03T02:36:47.413Z,6.80
2023-04-03T02:39:14.338Z,6.45
2023-04-03T02:41:44.099Z,6.90
2023-04-03T02:44:22.434Z,9.27
2023-04-03T02:46:49.084Z,6.75
2023-04-03T02:49:16.438Z,6.13
2023-04-03T02:51:45.606Z,9.82
2023-04-03T02:54:15.537Z,7.70
2023-04-03T02:56:45.526Z,7.13
2023-04-03T02:59:15.416Z,5.65
2023-04-03T03:01:45.427Z,7.15
2023-04-03T03:04:14.648Z,8.30
2023-04-03T03:06:44.975Z,6.13
2023-04-03T03:09:20.412Z,5.28
2023-04-03T03:11:47.062Z,6.82
2023-04-03T03:14:16.770Z,7.05
2023-04-03T03:16:43.552Z,9.07
2023-04-03T03:19:15.751Z,5.35
2023-04-03T03:21:45.699Z,7.70
2023-04-03T03:24:18.506Z,8.65
2023-04-03T03:26:47.183Z,7.75
2023-04-03T03:29:13.994Z,8.80
2023-04-03T03:31:43.520Z,7.15
2023-04-03T03:34:12.884Z,6.43
2023-04-03T03:36:43.285Z,7.28
2023-04-03T03:39:13.182Z,5.97
2023-04-03T03:41:42.264Z,7.18
2023-04-03T03:44:09.103Z,6.43
2023-04-03T03:46:35.792Z,8.32
2023-04-03T03:49:02.493Z,5.55
2023-04-03T03:51:36.814Z,6.05
2023-04-03T03:54:09.300Z,9.70
2023-04-03T03:56:36.348Z,6.70
2023-04-03T03:59:04.913Z,11.88
2023-04-03T04:01:31.645Z,8.68
2023-04-03T04:03:58.805Z,8.35
2023-04-03T04:06:27.397Z,7.45
2023-04-03T04:08:54.813Z,6.90
2023-04-03T04:11:22.883Z,7.25
2023-04-03T04:13:49.563Z,9.73
2023-04-03T04:16:18.986Z,5.63
2023-04-03T04:18:46.039Z,5.70
2023-04-03T04:21:15.371Z,10.63
2023-04-03T04:23:46.095Z,6.40
2023-04-03T04:26:15.561Z,6.50
2023-04-03T04:28:44.691Z,8.52
2023-04-03T04:31:17.333Z,7.70
2023-04-03T04:33:44.010Z,10.55
2023-04-03T04:36:16.886Z,7.45
2023-04-03T04:38:47.066Z,8.25
2023-04-03T04:41:17.121Z,13.20
2023-04-03T04:43:52.466Z,5.82
2023-04-03T04:46:20.145Z,6.40
2023-04-03T04:48:49.959Z,7.95
2023-04-03T04:51:17.852Z,5.80
2023-04-03T04:53:44.837Z,6.50
2023-04-03T04:56:12.493Z,11.65
2023-04-03T04:58:41.581Z,7.25
2023-04-03T05:01:12.063Z,6.13
2023-04-03T05:03:39.075Z,10.88
2023-04-03T05:06:08.739Z,10.05
2023-04-03T05:08:35.355Z,7.20
2023-04-03T05:11:02.041Z,7.53
2023-04-03T05:13:28.694Z,6.68
2023-04-03T05:15:58.523Z,7.47
2023-04-03T05:18:25.734Z,11.73
2023-04-03T05:20:52.542Z,7.78
2023-04-03T05:23:19.862Z,9.27
2023-04-03T05:25:49.855Z,14.50
2023-04-03T05:28:19.616Z,11.27
2023-04-03T05:30:46.351Z,11.23
2023-04-03T05:33:13.147Z,10.77
2023-04-03T05:36:04.394Z,8.50
2023-04-03T05:38:31.540Z,17.63
2023-04-03T05:40:58.404Z,15.80
2023-04-03T05:43:25.785Z,12.20
2023-04-03T05:45:53.230Z,10.25
2023-04-03T05:56:31.590Z,10.63
2023-04-03T05:58:58.334Z,13.40
2023-04-03T06:01:25.044Z,12.55
2023-04-03T06:03:51.837Z,10.60
2023-04-03T06:25:22.993Z,12.70
2023-04-03T06:27:52.871Z,8.63
2023-04-03T06:30:19.828Z,9.77
2023-04-03T06:32:46.857Z,7.10
2023-04-03T06:35:13.701Z,5.55
2023-04-03T06:37:43.302Z,6.45
2023-04-03T06:40:28.390Z,5.22
2023-04-03T06:42:55.519Z,4.55
2023-04-03T06:45:22.900Z,5.85
2023-04-03T06:47:52.245Z,5.93
2023-04-03T06:50:21.908Z,6.20
2023-04-03T06:52:51.930Z,3.97
2023-04-03T06:55:22.592Z,4.50
2023-04-03T06:57:50.972Z,3.65
2023-04-03T07:00:24.201Z,3.97
2023-04-03T07:02:50.859Z,4.15
2023-04-03T07:05:23.560Z,3.33
2023-04-03T07:07:51.175Z,3.25
2023-04-03T07:10:21.582Z,5.53
2023-04-03T07:12:48.309Z,2.88
2023-04-03T07:15:15.461Z,4.35
2023-04-03T07:17:46.879Z,4.78
2023-04-03T07:20:14.025Z,3.92
2023-04-03T07:22:49.142Z,3.95
2023-04-03T07:25:16.004Z,3.75
2023-04-03T07:27:45.062Z,3.05
2023-04-03T07:30:15.201Z,4.07
2023-04-03T07:32:45.145Z,4.05
2023-04-03T07:35:11.908Z,3.15
2023-04-03T07:37:44.710Z,3.72
2023-04-03T07:40:14.666Z,5.20
2023-04-03T07:42:44.462Z,3.25
2023-04-03T07:45:11.851Z,3.72
2023-04-03T07:47:38.522Z,4.72
2023-04-03T07:50:06.115Z,2.60
2023-04-03T07:52:35.640Z,2.90
2023-04-03T07:55:02.401Z,3.53
2023-04-03T07:57:33.551Z,3.20
2023-04-03T08:00:04.593Z,2.50
2023-04-03T08:02:32.866Z,3.22
2023-04-03T08:05:00.442Z,3.83
2023-04-03T08:07:27.595Z,2.47
2023-04-03T08:09:57.268Z,2.58
2023-04-03T08:12:24.070Z,2.78
2023-04-03T08:14:54.220Z,3.20
2023-04-03T08:17:23.583Z,3.83
2023-04-03T08:19:52.733Z,3.10
2023-04-03T08:22:21.831Z,3.05
2023-04-03T08:24:58.418Z,3.15
2023-04-03T08:27:28.294Z,2.72
2023-04-03T08:29:56.645Z,3.50
2023-04-03T08:32:23.986Z,3.33
2023-04-03T08:34:53.152Z,3.88
2023-04-03T08:37:23.072Z,3.10
2023-04-03T08:39:49.772Z,2.42
2023-04-03T08:43:02.337Z,3.10
2023-04-03T08:45:47.912Z,2.70
2023-04-03T08:48:42.769Z,3.72
2023-04-03T08:51:24.281Z,3.38
2023-04-03T08:54:38.951Z,3.35
2023-04-03T08:57:09.371Z,5.35
2023-04-03T08:59:42.829Z,3.03
2023-04-03T09:02:52.626Z,2.60
2023-04-03T09:05:48.290Z,2.85
2023-04-03T09:08:37.894Z,2.95
2023-04-03T09:11:29.328Z,3.22
2023-04-03T09:14:08.805Z,3.25
2023-04-03T09:17:04.054Z,2.65
2023-04-03T09:20:00.162Z,3.13
2023-04-03T09:22:45.489Z,2.67
2023-04-03T09:25:38.362Z,3.30
2023-04-03T09:28:10.762Z,4.22
2023-04-03T09:30:46.851Z,2.85
2023-04-03T09:33:18.853Z,2.45
2023-04-03T09:35:48.963Z,3.88
2023-04-03T09:38:29.020Z,3.38
2023-04-03T09:41:19.649Z,3.17
2023-04-03T09:43:58.575Z,4.57
2023-04-03T09:46:38.715Z,2.80
2023-04-03T09:49:09.742Z,3.40
2023-04-03T09:51:42.690Z,3.85
2023-04-03T09:54:38.784Z,2.70
2023-04-03T09:57:14.501Z,2.28
2023-04-03T10:00:26.497Z,4.32
2023-04-03T10:02:57.775Z,3.08
2023-04-03T10:05:42.638Z,4.82
2023-04-03T10:08:15.430Z,4.38
2023-04-03T10:10:51.751Z,3.13
2023-04-03T10:13:22.249Z,4.35
2023-04-03T10:16:15.395Z,3.92
2023-04-03T10:22:28.885Z,2.40
2023-04-03T10:25:20.494Z,3.35
2023-04-03T10:28:09.005Z,2.15
2023-04-03T10:31:13.135Z,3.05
2023-04-03T10:34:08.203Z,3.53
2023-04-03T10:37:11.917Z,2.95
2023-04-03T10:40:11.971Z,3.75
2023-04-03T10:43:05.533Z,2.97
2023-04-03T10:45:58.229Z,3.17
2023-04-03T10:49:11.762Z,2.70
2023-04-03T10:52:27.775Z,3.45
2023-04-03T10:55:19.804Z,4.82
2023-04-03T10:57:50.180Z,4.43
2023-04-03T11:00:48.010Z,3.08
2023-04-03T11:03:48.343Z,2.50
2023-04-03T11:06:21.042Z,3.97
2023-04-03T11:08:58.099Z,3.60
2023-04-03T11:11:51.748Z,4.47
2023-04-03T11:14:37.450Z,3.97
2023-04-03T11:17:36.885Z,3.50
2023-04-03T11:20:28.519Z,3.10
2023-04-03T11:23:35.482Z,3.70
2023-04-03T11:26:22.416Z,5.43
2023-04-03T11:29:04.071Z,2.75
2023-04-03T11:32:30.494Z,3.05
2023-04-03T11:35:06.518Z,3.65
2023-04-03T11:37:45.769Z,6.63
2023-04-03T11:40:34.123Z,3.20
2023-04-03T11:43:05.371Z,3.58
2023-04-03T11:46:07.898Z,4.82
2023-04-03T11:48:46.705Z,3.17
2023-04-03T11:51:13.310Z,4.72
2023-04-03T11:53:45.773Z,5.22
2023-04-03T11:56:33.126Z,3.15
2023-04-03T11:59:11.672Z,4.65
2023-04-03T12:01:57.523Z,4.28
2023-04-03T12:04:35.061Z,3.75
2023-04-03T12:07:20.004Z,3.47
2023-04-03T12:09:46.722Z,4.78
2023-04-03T12:12:37.710Z,3.67
2023-04-03T12:15:41.201Z,10.73
2023-04-03T12:19:07.605Z,4.53
2023-04-03T12:21:37.437Z,3.20
2023-04-03T12:24:18.968Z,2.90
2023-04-03T12:27:34.051Z,3.60
2023-04-03T12:30:05.033Z,5.32
2023-04-03T12:33:17.964Z,3.72
2023-04-03T12:36:29.376Z,4.35
2023-04-03T12:39:23.997Z,4.47
2023-04-03T12:42:43.654Z,3.58
2023-04-03T12:45:23.500Z,4.05
2023-04-03T12:47:56.424Z,3.58
2023-04-03T12:50:34.179Z,4.20
2023-04-03T12:53:12.755Z,5.03
2023-04-03T12:55:48.432Z,4.25
2023-04-03T12:58:34.875Z,3.42
2023-04-03T13:01:15.928Z,11.45
2023-04-03T13:03:50.578Z,4.78
2023-04-03T13:06:43.336Z,3.80
2023-04-03T13:09:36.290Z,3.13
2023-04-03T13:12:15.196Z,3.42
2023-04-03T13:14:56.385Z,3.47
2023-04-03T13:17:23.748Z,2.80
2023-04-03T13:19:52.271Z,3.15
2023-04-03T13:23:13.173Z,3.05
2023-04-03T13:25:51.861Z,3.92
2023-04-03T13:28:26.071Z,4.95
2023-04-03T13:31:12.869Z,3.97
2023-04-03T13:34:04.833Z,3.78
2023-04-03T13:37:04.311Z,4.78
2023-04-03T13:39:42.126Z,4.43
2023-04-03T13:42:49.772Z,3.22
2023-04-03T13:45:33.576Z,2.95
2023-04-03T13:48:23.752Z,4.07
2023-04-03T13:51:09.785Z,5.75
2023-04-03T13:54:20.747Z,4.82
2023-04-03T13:56:47.576Z,3.83
2023-04-03T13:59:17.392Z,4.80
2023-04-03T14:01:56.746Z,3.78
2023-04-03T14:04:51.774Z,4.97
2023-04-03T14:07:20.969Z,4.38
2023-04-03T14:09:49.017Z,4.55
2023-04-03T14:12:42.036Z,4.07
2023-04-03T14:15:35.010Z,4.20
2023-04-03T14:18:06.604Z,4.53
2023-04-03T14:20:34.584Z,4.60
2023-04-03T14:23:01.830Z,5.05
2023-04-03T14:25:28.599Z,4.78
2023-04-03T14:27:55.942Z,3.83
2023-04-03T14:30:35.321Z,4.32
2023-04-03T14:33:04.537Z,4.75
2023-04-03T14:35:34.244Z,4.68
2023-04-03T14:38:01.240Z,4.40
2023-04-03T14:40:28.798Z,4.07
2023-04-03T14:42:56.500Z,4.15
2023-04-03T14:45:25.044Z,4.95
2023-04-03T14:47:56.845Z,5.15
2023-04-03T14:50:28.267Z,3.42
2023-04-03T14:53:02.950Z,4.05
2023-04-03T14:55:32.324Z,5.78
2023-04-03T14:58:04.002Z,6.07
2023-04-03T15:00:36.146Z,3.80
2023-04-03T15:03:06.158Z,3.78
2023-04-03T15:05:40.310Z,4.03
2023-04-03T15:08:23.930Z,3.97
2023-04-03T15:10:55.268Z,4.40
2023-04-03T16:07:59.026Z,4.97
2023-04-03T16:10:25.956Z,4.87
2023-04-03T16:12:55.760Z,4.88
2023-04-03T16:15:27.496Z,3.47
2023-04-03T16:17:59.050Z,5.10
2023-04-03T16:20:29.525Z,7.72
2023-04-03T16:25:48.472Z,3.95
2023-04-03T16:28:18.482Z,3.95
2023-04-03T16:38:56.571Z,5.13
2023-04-03T16:41:25.369Z,4.90
2023-04-03T16:43:52.210Z,4.75
2023-04-03T16:46:27.381Z,5.53
2023-04-03T16:48:57.256Z,5.50
2023-04-03T16:51:24.117Z,6.88
2023-04-03T17:24:05.711Z,6.20
2023-04-03T17:26:32.536Z,8.10
2023-04-03T17:29:07.538Z,8.10
2023-04-03T17:53:15.290Z,5.93
2023-04-03T17:55:47.703Z,5.45
2023-04-03T17:58:14.683Z,5.95
2023-04-03T18:14:41.668Z,6.50
2023-04-03T19:12:02.052Z,6.63
2023-04-03T19:14:29.281Z,6.47
2023-04-03T19:27:55.239Z,8.95
2023-04-03T19:30:22.645Z,6.57
2023-04-03T19:32:55.495Z,5.95
2023-04-03T19:35:22.369Z,7.07
2023-04-03T19:38:00.409Z,6.80
2023-04-03T19:40:45.013Z,6.20
2023-04-03T19:45:52.671Z,7.20
2023-04-03T19:48:25.549Z,5.68
2023-04-03T19:50:52.315Z,7.65
2023-04-03T19:53:22.156Z,5.70
2023-04-03T19:55:49.415Z,6.28
2023-04-03T19:58:16.347Z,5.45
2023-04-03T20:00:45.398Z,5.68
2023-04-03T20:03:12.310Z,6.05
2023-04-03T20:05:48.316Z,6.97
2023-04-03T20:08:15.439Z,7.07
2023-04-03T20:10:48.653Z,7.07
2023-04-03T20:13:22.760Z,7.57
2023-04-03T20:15:52.410Z,6.80
2023-04-03T20:18:21.291Z,5.97
2023-04-03T20:21:03.812Z,6.63
2023-04-03T20:23:31.544Z,5.70
2023-04-03T20:26:10.890Z,6.72
2023-04-03T20:28:45.994Z,5.38
2023-04-03T20:31:15.917Z,6.70
2023-04-03T20:33:47.748Z,6.88
2023-04-03T20:36:16.383Z,6.18
2023-04-03T20:38:49.314Z,6.88
2023-04-03T20:41:16.848Z,6.13
2023-04-03T20:43:48.351Z,8.23
2023-04-03T20:46:19.566Z,6.00
2023-04-03T20:48:49.483Z,5.00
2023-04-03T20:51:20.924Z,4.65
2023-04-03T20:53:48.812Z,4.72
2023-04-03T20:56:18.741Z,4.88
2023-04-03T20:58:48.167Z,6.93
2023-04-03T21:01:23.880Z,5.63
2023-04-03T21:04:19.965Z,5.28
2023-04-03T21:08:02.690Z,5.82
2023-04-03T21:11:44.924Z,4.80
2023-04-03T21:15:27.257Z,4.75
2023-04-03T21:18:06.656Z,5.95
2023-04-03T21:20:33.774Z,4.85
2023-04-03T21:23:00.669Z,4.70
2023-04-03T21:25:28.245Z,5.30
2023-04-03T21:27:55.530Z,5.15
2023-04-03T21:30:22.656Z,5.90
2023-04-03T21:32:49.389Z,5.85
2023-04-03T21:35:16.036Z,4.70
2023-04-03T21:37:50.196Z,10.32
2023-04-03T21:42:46.933Z,5.65
2023-04-03T21:45:18.485Z,4.07
2023-04-03T21:47:48.542Z,4.95
2023-04-03T21:50:19.325Z,5.85
2023-04-03T21:52:53.281Z,5.38
2023-04-03T21:55:20.034Z,6.15
2023-04-03T21:57:53.630Z,4.70
2023-04-03T22:00:22.921Z,6.20
2023-04-03T22:03:00.512Z,7.38
2023-04-03T22:05:32.277Z,5.90
2023-04-03T22:07:59.022Z,5.07
2023-04-03T22:10:25.672Z,5.47
2023-04-03T22:12:54.899Z,7.20
2023-04-03T22:15:24.386Z,5.82
2023-04-03T22:17:53.696Z,8.50
2023-04-03T22:20:20.564Z,5.00
2023-04-03T22:22:53.215Z,4.40
2023-04-03T22:25:22.172Z,4.78
2023-04-03T22:27:51.936Z,4.40
2023-04-03T22:30:21.570Z,5.88
2023-04-03T22:32:51.384Z,4.50
2023-04-03T22:35:18.249Z,4.68
2023-04-03T22:37:52.968Z,4.68
2023-04-03T22:40:22.394Z,6.25
2023-04-03T22:42:52.043Z,4.97
2023-04-03T22:45:18.833Z,8.93
2023-04-03T22:47:48.776Z,5.85
2023-04-03T22:50:15.784Z,8.07
2023-04-03T22:52:42.562Z,5.25
2023-04-03T22:55:19.013Z,4.97
2023-04-03T22:57:51.742Z,4.53
2023-04-03T23:00:18.671Z,4.72
2023-04-03T23:02:55.035Z,5.35
2023-04-03T23:05:21.850Z,4.80
2023-04-03T23:07:51.767Z,4.45
2023-04-03T23:10:20.779Z,5.07
2023-04-03T23:12:47.648Z,4.60
2023-04-03T23:15:19.405Z,4.28
2023-04-03T23:17:50.224Z,5.03
2023-04-03T23:20:17.378Z,4.20
2023-04-03T23:22:48.135Z,5.72
2023-04-03T23:25:14.800Z,4.78
2023-04-03T23:27:55.525Z,4.90
2023-04-03T23:30:22.247Z,4.32
2023-04-03T23:32:49.206Z,4.32
2023-04-03T23:35:16.735Z,4.53
2023-04-03T23:37:43.420Z,4.57
2023-04-03T23:40:11.223Z,6.05
2023-04-03T23:42:43.803Z,5.07
2023-04-03T23:45:10.728Z,4.63
2023-04-03T23:47:37.711Z,4.55
2023-04-03T23:50:05.306Z,4.68
2023-04-03T23:52:32.430Z,5.22
2023-04-03T23:55:02.104Z,5.72
2023-04-03T23:57:28.936Z,4.95
2023-04-03T23:59:58.192Z,4.75
